createdAt,value
2022-10-11T00:00:02.500Z,21.10
2022-10-11T00:01:02.520Z,20.60
2022-10-11T00:02:02.458Z,22.20
2022-10-11T00:03:02.438Z,22.30
2022-10-11T00:04:02.459Z,20.00
2022-10-11T00:05:02.480Z,23.60
2022-10-11T00:06:02.834Z,22.80
2022-10-11T00:07:02.402Z,21.30
2022-10-11T00:08:02.430Z,24.20
2022-10-11T00:09:02.362Z,17.90
2022-10-11T00:10:02.346Z,21.50
2022-10-11T00:11:02.344Z,20.20
2022-10-11T00:12:02.598Z,24.70
2022-10-11T00:13:02.288Z,18.90
2022-10-11T00:14:02.365Z,20.30
2022-10-11T00:15:02.286Z,23.70
2022-10-11T00:16:02.518Z,21.50
2022-10-11T00:17:02.322Z,17.40
2022-10-11T00:18:05.359Z,17.00
2022-10-11T00:19:03.582Z,21.00
2022-10-11T00:20:02.260Z,23.00
2022-10-11T00:21:02.273Z,20.40
2022-10-11T00:22:02.232Z,26.30
2022-10-11T00:23:02.232Z,23.90
2022-10-11T00:24:02.282Z,21.20
2022-10-11T00:25:02.191Z,16.70
2022-10-11T00:26:02.461Z,22.40
2022-10-11T00:27:02.275Z,17.30
2022-10-11T00:28:02.167Z,21.40
2022-10-11T00:29:02.155Z,27.20
2022-10-11T00:30:02.300Z,21.10
2022-10-11T00:31:02.486Z,19.40
2022-10-11T00:32:02.195Z,21.50
2022-10-11T00:33:02.151Z,19.80
2022-10-11T00:34:02.168Z,25.20
2022-10-11T00:35:02.068Z,18.70
2022-10-11T00:36:02.373Z,19.00
2022-10-11T00:37:02.092Z,30.70
2022-10-11T00:38:02.044Z,17.20
2022-10-11T00:39:02.021Z,23.90
2022-10-11T00:40:02.081Z,15.10
2022-10-11T00:41:02.021Z,18.80
2022-10-11T00:42:01.995Z,16.40
2022-10-11T00:43:02.061Z,21.60
2022-10-11T00:44:01.982Z,22.90
2022-10-11T00:45:01.980Z,24.20
2022-10-11T00:46:02.316Z,23.50
2022-10-11T00:47:01.984Z,22.80
2022-10-11T00:48:01.970Z,21.10
2022-10-11T00:49:01.980Z,21.10
2022-10-11T00:50:01.945Z,19.90
2022-10-11T00:51:02.248Z,22.50
2022-10-11T00:52:01.902Z,17.40
2022-10-11T00:53:01.904Z,21.30
2022-10-11T00:54:01.897Z,16.40
2022-10-11T00:55:02.149Z,21.30
2022-10-11T00:56:02.211Z,18.80
2022-10-11T00:57:01.882Z,36.70
2022-10-11T00:58:01.876Z,35.40
2022-10-11T00:59:01.885Z,39.70
2022-10-11T01:00:01.817Z,43.50
2022-10-11T01:01:01.911Z,27.20
2022-10-11T01:02:01.849Z,26.70
2022-10-11T01:03:01.829Z,27.90
2022-10-11T01:04:01.905Z,34.20
2022-10-11T01:05:25.654Z,31.20
2022-10-11T01:06:04.173Z,33.20
2022-10-11T01:07:01.735Z,31.10
2022-10-11T01:08:01.755Z,35.40
2022-10-11T01:09:01.801Z,25.10
2022-10-11T01:10:01.774Z,24.40
2022-10-11T01:11:01.673Z,24.00
2022-10-11T01:12:01.705Z,24.00
2022-10-11T01:13:01.765Z,21.30
2022-10-11T01:14:01.702Z,20.10
2022-10-11T01:15:01.772Z,22.80
2022-10-11T01:16:02.009Z,23.30
2022-10-11T01:17:01.676Z,23.20
2022-10-11T01:18:01.639Z,21.90
2022-10-11T01:19:02.621Z,33.80
2022-10-11T01:20:01.628Z,24.20
2022-10-11T01:21:01.644Z,22.60
2022-10-11T01:22:01.610Z,18.30
2022-10-11T01:23:01.602Z,22.10
2022-10-11T01:24:05.992Z,21.20
2022-10-11T01:25:01.566Z,25.10
2022-10-11T01:26:01.961Z,21.90
2022-10-11T01:27:01.558Z,20.20
2022-10-11T01:28:01.540Z,19.60
2022-10-11T01:29:01.514Z,24.00
2022-10-11T01:30:01.587Z,25.60
2022-10-11T01:31:01.491Z,19.60
2022-10-11T01:32:01.529Z,22.20
2022-10-11T01:33:01.474Z,20.10
2022-10-11T01:34:01.450Z,21.20
2022-10-11T01:35:01.502Z,26.10
2022-10-11T01:36:01.652Z,23.40
2022-10-11T01:37:01.991Z,20.10
2022-10-11T01:38:01.437Z,21.90
2022-10-11T01:39:01.408Z,25.00
2022-10-11T01:40:02.079Z,20.50
2022-10-11T01:41:01.399Z,23.10
2022-10-11T01:42:01.412Z,24.80
2022-10-11T01:43:01.409Z,19.90
2022-10-11T01:44:01.578Z,26.00
2022-10-11T01:45:01.351Z,24.00
2022-10-11T01:46:01.555Z,19.10
2022-10-11T01:47:01.407Z,18.50
2022-10-11T01:48:01.318Z,19.00
2022-10-11T01:49:01.342Z,18.80
2022-10-11T01:50:01.380Z,17.70
2022-10-11T01:51:01.277Z,22.20
2022-10-11T01:52:01.279Z,18.70
2022-10-11T01:53:01.331Z,19.60
2022-10-11T01:54:01.331Z,21.30
2022-10-11T01:55:09.947Z,23.40
2022-10-11T01:56:03.669Z,19.60
2022-10-11T01:57:01.284Z,16.40
2022-10-11T01:58:01.193Z,24.10
2022-10-11T01:59:01.248Z,23.40
2022-10-11T02:00:01.252Z,20.30
2022-10-11T02:01:01.272Z,21.70
2022-10-11T02:02:01.161Z,21.10
2022-10-11T02:03:01.143Z,24.30
2022-10-11T02:04:01.172Z,21.40
2022-10-11T02:05:01.083Z,24.70
2022-10-11T02:06:01.245Z,18.80
2022-10-11T02:07:01.117Z,23.70
2022-10-11T02:08:01.155Z,21.30
2022-10-11T02:09:04.521Z,20.40
2022-10-11T02:10:03.084Z,23.80
2022-10-11T02:11:01.224Z,16.60
2022-10-11T02:12:01.081Z,20.70
2022-10-11T02:13:01.209Z,21.60
2022-10-11T02:14:01.004Z,22.20
2022-10-11T02:15:01.313Z,17.40
2022-10-11T02:16:01.080Z,22.70
2022-10-11T02:17:01.897Z,19.80
2022-10-11T02:18:00.980Z,20.00
2022-10-11T02:19:00.984Z,20.50
2022-10-11T02:20:01.021Z,22.30
2022-10-11T02:21:00.993Z,14.70
2022-10-11T02:22:00.938Z,18.70
2022-10-11T02:23:00.913Z,21.00
2022-10-11T02:24:00.948Z,19.70
2022-10-11T02:25:00.944Z,20.50
2022-10-11T02:26:00.922Z,23.10
2022-10-11T02:27:00.902Z,20.40
2022-10-11T02:28:00.869Z,20.60
2022-10-11T02:29:00.921Z,18.10
2022-10-11T02:30:00.901Z,18.30
2022-10-11T02:31:00.884Z,16.80
2022-10-11T02:32:00.869Z,19.80
2022-10-11T02:33:00.929Z,23.60
2022-10-11T02:34:00.821Z,19.70
2022-10-11T02:35:00.793Z,18.80
2022-10-11T02:36:00.905Z,17.30
2022-10-11T02:37:01.613Z,20.80
2022-10-11T02:38:00.803Z,15.90
2022-10-11T02:39:00.787Z,19.40
2022-10-11T02:40:00.745Z,15.70
2022-10-11T02:41:00.769Z,15.90
2022-10-11T02:42:00.733Z,15.90
2022-10-11T02:43:00.704Z,22.70
2022-10-11T02:44:00.713Z,18.00
2022-10-11T02:45:00.717Z,19.30
2022-10-11T02:46:00.682Z,21.80
2022-10-11T02:47:00.698Z,15.80
2022-10-11T02:48:01.541Z,18.00
2022-10-11T02:49:00.714Z,16.80
2022-10-11T02:50:00.674Z,16.50
2022-10-11T02:51:00.640Z,13.90
2022-10-11T02:52:00.648Z,17.50
2022-10-11T02:53:00.614Z,14.70
2022-10-11T02:54:00.671Z,19.30
2022-10-11T02:55:00.587Z,16.80
2022-10-11T02:56:00.573Z,17.90
2022-10-11T02:57:00.574Z,21.70
2022-10-11T02:58:00.603Z,19.70
2022-10-11T02:59:00.521Z,19.70
2022-10-11T03:00:00.485Z,20.00
2022-10-11T03:01:01.490Z,20.20
2022-10-11T03:02:00.645Z,16.80
2022-10-11T03:03:00.510Z,15.60
2022-10-11T03:04:00.470Z,19.80
2022-10-11T03:05:00.500Z,17.30
2022-10-11T03:06:00.472Z,19.10
2022-10-11T03:07:00.422Z,18.90
2022-10-11T03:08:00.435Z,17.40
2022-10-11T03:09:00.410Z,20.40
2022-10-11T03:10:00.386Z,21.80
2022-10-11T03:11:00.350Z,15.80
2022-10-11T03:12:00.343Z,17.80
2022-10-11T03:13:00.382Z,19.60
2022-10-11T03:14:00.310Z,23.50
2022-10-11T03:15:00.369Z,18.20
2022-10-11T03:16:03.678Z,18.50
2022-10-11T03:17:23.786Z,23.80
2022-10-11T03:18:02.318Z,22.40
2022-10-11T03:19:00.292Z,18.80
2022-10-11T03:20:00.355Z,20.70
2022-10-11T03:21:00.267Z,18.90
2022-10-11T03:22:00.291Z,20.00
2022-10-11T03:23:01.045Z,16.50
2022-10-11T03:24:00.291Z,20.80
2022-10-11T03:25:04.018Z,17.50
2022-10-11T03:26:01.269Z,21.50
2022-10-11T03:27:00.191Z,18.90
2022-10-11T03:28:00.234Z,16.20
2022-10-11T03:29:01.003Z,17.70
2022-10-11T03:30:00.215Z,19.00
2022-10-11T03:31:00.294Z,23.10
2022-10-11T03:32:00.143Z,22.20
2022-10-11T03:33:00.154Z,22.70
2022-10-11T03:34:00.140Z,21.80
2022-10-11T03:35:00.117Z,22.00
2022-10-11T03:36:00.175Z,15.90
2022-10-11T03:37:00.091Z,20.70
2022-10-11T03:38:00.090Z,15.80
2022-10-11T03:39:00.092Z,15.10
2022-10-11T03:40:00.152Z,22.70
2022-10-11T03:41:00.020Z,24.90
2022-10-11T03:41:59.997Z,21.80
2022-10-11T03:42:59.992Z,20.10
2022-10-11T03:44:00.009Z,21.80
2022-10-11T03:45:00.020Z,20.50
2022-10-11T03:45:59.968Z,21.30
2022-10-11T03:47:00.014Z,17.00
2022-10-11T03:47:59.949Z,20.70
2022-10-11T03:48:59.942Z,18.40
2022-10-11T03:50:00.001Z,32.40
2022-10-11T03:50:59.928Z,31.40
2022-10-11T03:52:00.942Z,31.80
2022-10-11T03:52:59.932Z,28.40
2022-10-11T03:53:59.888Z,35.30
2022-10-11T03:54:59.926Z,29.50
2022-10-11T03:56:03.391Z,28.80
2022-10-11T03:57:00.838Z,35.90
2022-10-11T03:57:59.945Z,34.50
2022-10-11T03:58:59.833Z,31.40
2022-10-11T03:59:59.814Z,18.20
2022-10-11T04:00:59.880Z,21.60
2022-10-11T04:01:59.873Z,24.60
2022-10-11T04:02:59.857Z,24.40
2022-10-11T04:03:59.766Z,26.80
2022-10-11T04:04:59.721Z,25.60
2022-10-11T04:05:59.901Z,17.90
2022-10-11T04:06:59.802Z,36.20
2022-10-11T04:07:59.747Z,20.00
2022-10-11T04:08:59.727Z,23.40
2022-10-11T04:09:59.742Z,16.00
2022-10-11T04:10:59.722Z,19.90
2022-10-11T04:11:59.689Z,20.50
2022-10-11T04:12:59.699Z,21.30
2022-10-11T04:13:59.723Z,20.10
2022-10-11T04:15:00.454Z,23.90
2022-10-11T04:15:59.698Z,22.90
2022-10-11T04:17:00.465Z,25.20
2022-10-11T04:18:00.718Z,19.20
2022-10-11T04:18:59.594Z,18.80
2022-10-11T04:19:59.554Z,25.50
2022-10-11T04:20:59.590Z,20.50
2022-10-11T04:21:59.576Z,13.90
2022-10-11T04:22:59.587Z,19.10
2022-10-11T04:23:59.553Z,24.00
2022-10-11T04:24:59.520Z,18.60
2022-10-11T04:25:59.523Z,17.30
2022-10-11T04:26:59.507Z,19.20
2022-10-11T04:27:59.531Z,17.70
2022-10-11T04:28:59.574Z,17.60
2022-10-11T04:29:59.550Z,22.40
2022-10-11T04:30:59.509Z,17.40
2022-10-11T04:31:59.428Z,19.00
2022-10-11T04:32:59.530Z,17.70
2022-10-11T04:33:59.416Z,15.30
2022-10-11T04:34:59.436Z,21.70
2022-10-11T04:35:59.405Z,18.10
2022-10-11T04:36:59.463Z,19.90
2022-10-11T04:37:59.383Z,22.70
2022-10-11T04:38:59.368Z,18.40
2022-10-11T04:39:59.441Z,17.40
2022-10-11T04:41:00.023Z,14.80
2022-10-11T04:41:59.434Z,22.80
2022-10-11T04:42:59.329Z,16.40
2022-10-11T04:43:59.315Z,19.50
2022-10-11T04:44:59.268Z,20.90
2022-10-11T04:45:59.279Z,18.10
2022-10-11T04:47:00.277Z,18.60
2022-10-11T04:47:59.280Z,23.30
2022-10-11T04:48:59.360Z,17.50
2022-10-11T04:49:59.217Z,18.70
2022-10-11T04:50:59.236Z,18.60
2022-10-11T04:51:59.180Z,20.00
2022-10-11T04:52:59.247Z,15.80
2022-10-11T04:53:59.204Z,23.50
2022-10-11T04:54:59.227Z,12.10
2022-10-11T04:55:59.890Z,16.60
2022-10-11T04:56:59.168Z,21.00
2022-10-11T04:57:59.180Z,14.70
2022-10-11T04:58:59.194Z,23.40
2022-10-11T04:59:59.218Z,15.10
2022-10-11T05:00:59.164Z,15.00
2022-10-11T05:01:59.178Z,18.00
2022-10-11T05:03:00.025Z,13.30
2022-10-11T05:03:59.073Z,15.30
2022-10-11T05:04:59.085Z,14.40
2022-10-11T05:06:03.163Z,16.30
2022-10-11T05:07:01.937Z,16.50
2022-10-11T05:07:59.040Z,16.90
2022-10-11T05:08:59.068Z,13.30
2022-10-11T05:09:59.061Z,15.20
2022-10-11T05:10:59.025Z,18.70
2022-10-11T05:11:59.033Z,16.70
2022-10-11T05:12:58.998Z,16.30
2022-10-11T05:13:59.018Z,17.30
2022-10-11T05:14:58.997Z,13.70
2022-10-11T05:15:58.984Z,16.30
2022-10-11T05:16:58.948Z,15.50
2022-10-11T05:17:58.925Z,17.70
2022-10-11T05:18:58.941Z,18.00
2022-10-11T05:19:59.022Z,20.90
2022-10-11T05:20:58.890Z,13.20
2022-10-11T05:21:58.891Z,13.40
2022-10-11T05:22:58.894Z,17.80
2022-10-11T05:23:59.014Z,15.30
2022-10-11T05:24:58.882Z,18.70
2022-10-11T05:25:58.842Z,19.40
2022-10-11T05:27:03.115Z,19.30
2022-10-11T05:27:58.834Z,16.10
2022-10-11T05:28:58.865Z,14.70
2022-10-11T05:29:58.820Z,15.10
2022-10-11T05:30:58.794Z,14.40
2022-10-11T05:31:58.786Z,13.50
2022-10-11T05:32:58.766Z,24.20
2022-10-11T05:33:58.783Z,19.10
2022-10-11T05:34:58.795Z,16.50
2022-10-11T05:35:58.738Z,21.20
2022-10-11T05:36:58.770Z,24.20
2022-10-11T05:37:58.730Z,18.20
2022-10-11T05:38:58.750Z,23.30
2022-10-11T05:39:58.715Z,20.50
2022-10-11T05:40:58.706Z,21.30
2022-10-11T05:41:58.671Z,18.10
2022-10-11T05:42:58.651Z,22.50
2022-10-11T05:43:58.648Z,20.70
2022-10-11T05:44:59.626Z,18.40
2022-10-11T05:45:58.627Z,20.90
2022-10-11T05:46:58.603Z,21.50
2022-10-11T05:47:58.634Z,18.50
2022-10-11T05:48:58.606Z,18.20
2022-10-11T05:49:58.587Z,16.40
2022-10-11T05:50:58.564Z,18.70
2022-10-11T05:51:58.591Z,18.40
2022-10-11T05:52:58.523Z,18.10
2022-10-11T05:53:58.587Z,19.90
2022-10-11T05:54:58.552Z,18.50
2022-10-11T05:55:58.527Z,22.20
2022-10-11T05:56:58.587Z,16.50
2022-10-11T05:57:58.507Z,14.30
2022-10-11T05:59:02.175Z,19.40
2022-10-11T05:59:59.501Z,19.50
2022-10-11T06:00:58.526Z,20.80
2022-10-11T06:01:58.530Z,17.30
2022-10-11T06:02:58.424Z,23.10
2022-10-11T06:03:58.428Z,19.80
2022-10-11T06:04:58.432Z,22.60
2022-10-11T06:05:58.404Z,20.00
2022-10-11T06:06:58.376Z,18.90
2022-10-11T06:07:58.422Z,19.90
2022-10-11T06:08:58.364Z,26.90
2022-10-11T06:09:58.393Z,28.10
2022-10-11T06:10:58.377Z,20.70
2022-10-11T06:11:58.327Z,25.40
2022-10-11T06:12:58.380Z,25.90
2022-10-11T06:13:58.303Z,19.50
2022-10-11T06:14:58.363Z,23.60
2022-10-11T06:15:58.261Z,22.00
2022-10-11T06:16:58.324Z,22.10
2022-10-11T06:17:58.325Z,22.60
2022-10-11T06:18:58.245Z,18.00
2022-10-11T06:19:58.245Z,21.40
2022-10-11T06:20:58.251Z,20.40
2022-10-11T06:21:58.284Z,26.40
2022-10-11T06:22:58.226Z,23.30
2022-10-11T06:24:01.381Z,30.40
2022-10-11T06:24:59.190Z,19.90
2022-10-11T06:25:58.178Z,22.70
2022-10-11T06:26:58.173Z,23.60
2022-10-11T06:27:58.164Z,29.20
2022-10-11T06:28:58.246Z,28.50
2022-10-11T06:29:58.189Z,20.80
2022-10-11T06:30:58.369Z,18.10
2022-10-11T06:31:58.121Z,25.80
2022-10-11T06:33:02.391Z,22.60
2022-10-11T06:34:00.121Z,30.90
2022-10-11T06:34:58.085Z,30.60
2022-10-11T06:35:58.081Z,25.30
2022-10-11T06:36:58.073Z,26.20
2022-10-11T06:37:58.098Z,25.90
2022-10-11T06:38:58.053Z,26.60
2022-10-11T06:39:58.019Z,24.90
2022-10-11T06:40:58.009Z,16.70
2022-10-11T06:41:58.030Z,18.50
2022-10-11T06:42:58.043Z,22.90
2022-10-11T06:43:58.003Z,18.00
2022-10-11T06:44:58.044Z,17.60
2022-10-11T06:45:57.937Z,21.30
2022-10-11T06:46:57.941Z,22.40
2022-10-11T06:47:57.918Z,16.80
2022-10-11T06:48:58.029Z,20.00
2022-10-11T06:49:57.943Z,20.50
2022-10-11T06:51:00.251Z,25.30
2022-10-11T06:51:57.903Z,20.70
2022-10-11T06:52:57.870Z,22.80
2022-10-11T06:53:57.895Z,23.00
2022-10-11T06:54:58.467Z,23.30
2022-10-11T06:55:57.899Z,23.90
2022-10-11T06:56:57.857Z,22.70
2022-10-11T06:57:57.810Z,23.00
2022-10-11T06:58:57.813Z,26.80
2022-10-11T06:59:57.797Z,26.60
2022-10-11T07:00:57.815Z,26.70
2022-10-11T07:01:57.761Z,20.30
2022-10-11T07:02:57.803Z,26.50
2022-10-11T07:03:57.766Z,25.50
2022-10-11T07:04:58.450Z,26.60
2022-10-11T07:06:02.120Z,26.20
2022-10-11T07:06:58.717Z,27.10
2022-10-11T07:07:57.711Z,25.60
2022-10-11T07:08:57.698Z,23.90
2022-10-11T07:09:57.691Z,26.80
2022-10-11T07:10:57.664Z,29.80
2022-10-11T07:11:57.648Z,24.30
2022-10-11T07:12:57.670Z,27.60
2022-10-11T07:13:57.658Z,23.50
2022-10-11T07:14:57.659Z,26.60
2022-10-11T07:15:57.599Z,23.30
2022-10-11T07:16:57.603Z,25.10
2022-10-11T07:17:57.634Z,24.40
2022-10-11T07:19:00.430Z,25.70
2022-10-11T07:19:57.596Z,22.80
2022-10-11T07:20:57.595Z,28.70
2022-10-11T07:21:57.552Z,24.10
2022-10-11T07:22:57.535Z,25.70
2022-10-11T07:23:57.527Z,24.00
2022-10-11T07:24:57.507Z,32.90
2022-10-11T07:25:57.516Z,27.00
2022-10-11T07:26:57.529Z,24.20
2022-10-11T07:27:57.475Z,32.60
2022-10-11T07:28:57.493Z,20.00
2022-10-11T07:29:57.487Z,24.30
2022-10-11T07:30:57.433Z,32.60
2022-10-11T07:31:57.436Z,28.00
2022-10-11T07:32:57.432Z,28.50
2022-10-11T07:33:57.428Z,24.90
2022-10-11T07:34:57.400Z,23.00
2022-10-11T07:35:57.969Z,23.70
2022-10-11T07:36:57.393Z,27.00
2022-10-11T07:37:58.346Z,26.90
2022-10-11T07:38:57.371Z,24.10
2022-10-11T07:39:57.329Z,23.20
2022-10-11T07:40:57.333Z,27.80
2022-10-11T07:41:57.351Z,27.70
2022-10-11T07:42:57.308Z,27.50
2022-10-11T07:43:57.325Z,22.30
2022-10-11T07:44:57.394Z,23.60
2022-10-11T07:45:57.303Z,22.60
2022-10-11T07:46:57.306Z,29.10
2022-10-11T07:47:57.280Z,25.50
2022-10-11T07:48:57.273Z,21.40
2022-10-11T07:49:57.222Z,23.40
2022-10-11T07:50:57.234Z,21.90
2022-10-11T07:51:57.201Z,24.80
2022-10-11T07:52:57.193Z,27.80
2022-10-11T07:53:57.201Z,23.90
2022-10-11T07:54:57.200Z,21.40
2022-10-11T07:55:57.281Z,30.20
2022-10-11T07:56:57.174Z,28.00
2022-10-11T07:57:57.168Z,19.80
2022-10-11T07:58:58.020Z,25.30
2022-10-11T07:59:57.148Z,28.50
2022-10-11T08:00:57.180Z,27.00
2022-10-11T08:01:57.171Z,22.20
2022-10-11T08:02:57.119Z,26.50
2022-10-11T08:03:57.144Z,27.30
2022-10-11T08:04:57.168Z,32.50
2022-10-11T08:05:57.057Z,24.40
2022-10-11T08:06:57.058Z,34.60
2022-10-11T08:07:57.849Z,27.50
2022-10-11T08:08:57.034Z,27.20
2022-10-11T08:09:57.038Z,27.60
2022-10-11T08:10:57.006Z,28.90
2022-10-11T08:11:57.034Z,28.40
2022-10-11T08:12:59.579Z,29.40
2022-10-11T08:13:59.135Z,28.70
2022-10-11T08:14:56.974Z,33.30
2022-10-11T08:15:56.935Z,39.70
2022-10-11T08:16:57.955Z,38.40
2022-10-11T08:17:56.991Z,36.10
2022-10-11T08:18:57.211Z,38.30
2022-10-11T08:19:56.918Z,34.20
2022-10-11T08:20:56.901Z,33.20
2022-10-11T08:21:56.927Z,29.90
2022-10-11T08:22:56.889Z,30.60
2022-10-11T08:23:56.882Z,35.00
2022-10-11T08:24:56.878Z,36.50
2022-10-11T08:25:56.852Z,32.80
2022-10-11T08:26:56.830Z,31.70
2022-10-11T08:27:56.847Z,40.80
2022-10-11T08:28:57.905Z,33.00
2022-10-11T08:29:56.793Z,29.40
2022-10-11T08:30:56.827Z,36.70
2022-10-11T08:31:56.953Z,34.60
2022-10-11T08:32:56.753Z,40.60
2022-10-11T08:33:56.798Z,33.40
2022-10-11T08:34:56.810Z,34.40
2022-10-11T08:35:56.754Z,30.90
2022-10-11T08:36:56.739Z,31.40
2022-10-11T08:37:56.683Z,35.90
2022-10-11T08:38:56.711Z,36.30
2022-10-11T08:39:56.684Z,29.50
2022-10-11T08:40:56.671Z,33.20
2022-10-11T08:41:56.669Z,36.80
2022-10-11T08:42:56.676Z,30.70
2022-10-11T08:43:56.651Z,34.80
2022-10-11T08:45:12.621Z,32.10
2022-10-11T08:45:58.619Z,39.90
2022-10-11T08:47:00.309Z,33.40
2022-10-11T08:47:56.583Z,34.90
2022-10-11T08:48:56.591Z,34.20
2022-10-11T08:49:56.611Z,33.80
2022-10-11T08:50:56.592Z,34.30
2022-10-11T08:51:56.547Z,38.40
2022-10-11T08:52:56.561Z,34.60
2022-10-11T08:53:56.547Z,36.60
2022-10-11T08:54:56.547Z,35.00
2022-10-11T08:55:56.553Z,35.70
2022-10-11T08:56:56.539Z,34.40
2022-10-11T08:57:56.502Z,28.90
2022-10-11T08:58:56.516Z,43.30
2022-10-11T08:59:56.473Z,37.60
2022-10-11T09:00:56.486Z,34.40
2022-10-11T09:01:56.545Z,35.40
2022-10-11T09:03:08.034Z,40.80
2022-10-11T09:03:58.424Z,37.50
2022-10-11T09:04:56.440Z,32.00
2022-10-11T09:05:56.423Z,38.70
2022-10-11T09:06:57.188Z,28.60
2022-10-11T09:07:56.413Z,40.60
2022-10-11T09:08:57.341Z,36.50
2022-10-11T09:09:56.387Z,42.50
2022-10-11T09:10:56.350Z,39.30
2022-10-11T09:11:56.454Z,40.10
2022-10-11T09:12:56.342Z,35.60
2022-10-11T09:13:56.323Z,38.20
2022-10-11T09:14:56.322Z,35.90
2022-10-11T09:15:56.422Z,43.90
2022-10-11T09:16:56.302Z,40.70
2022-10-11T09:17:56.290Z,36.60
2022-10-11T09:18:56.278Z,35.30
2022-10-11T09:19:56.279Z,38.80
2022-10-11T09:20:56.239Z,35.80
2022-10-11T09:21:56.252Z,39.00
2022-10-11T09:22:56.239Z,27.30
2022-10-11T09:23:56.226Z,30.60
2022-10-11T09:24:56.199Z,37.60
2022-10-11T09:25:56.211Z,33.40
2022-10-11T09:26:56.206Z,35.70
2022-10-11T09:28:02.938Z,39.20
2022-10-11T09:29:01.257Z,33.90
2022-10-11T09:29:57.174Z,31.30
2022-10-11T09:30:56.175Z,28.90
2022-10-11T09:31:56.138Z,30.60
2022-10-11T09:32:56.215Z,41.20
2022-10-11T09:33:56.107Z,35.80
2022-10-11T09:34:56.112Z,31.30
2022-10-11T09:35:56.072Z,35.00
2022-10-11T09:36:56.119Z,34.20
2022-10-11T09:37:56.106Z,33.10
2022-10-11T09:38:56.141Z,27.30
2022-10-11T09:39:56.051Z,30.00
2022-10-11T09:40:56.051Z,32.30
2022-10-11T09:41:56.080Z,30.10
2022-10-11T09:42:56.028Z,35.40
2022-10-11T09:43:56.055Z,29.10
2022-10-11T09:44:56.007Z,31.60
2022-10-11T09:45:56.072Z,33.30
2022-10-11T09:46:56.047Z,33.70
2022-10-11T09:47:55.988Z,33.90
2022-10-11T09:48:55.988Z,27.90
2022-10-11T09:49:55.991Z,35.10
2022-10-11T09:50:55.968Z,34.10
2022-10-11T09:51:55.955Z,33.80
2022-10-11T09:52:55.927Z,37.30
2022-10-11T09:53:55.940Z,32.80
2022-10-11T09:54:55.920Z,33.60
2022-10-11T09:55:55.941Z,32.20
2022-10-11T09:56:55.900Z,32.20
2022-10-11T09:57:55.921Z,35.80
2022-10-11T09:58:55.865Z,33.30
2022-10-11T09:59:55.872Z,34.60
2022-10-11T10:00:55.861Z,29.60
2022-10-11T10:01:55.868Z,29.20
2022-10-11T10:02:55.852Z,31.20
2022-10-11T10:03:56.004Z,32.60
2022-10-11T10:04:55.840Z,29.10
2022-10-11T10:05:55.814Z,34.20
2022-10-11T10:06:55.799Z,27.20
2022-10-11T10:07:55.808Z,20.70
2022-10-11T10:08:55.785Z,28.30
2022-10-11T10:09:55.761Z,33.70
2022-10-11T10:10:59.241Z,27.70
2022-10-11T10:11:56.757Z,32.40
2022-10-11T10:12:55.765Z,29.30
2022-10-11T10:13:55.736Z,28.90
2022-10-11T10:14:55.758Z,38.00
2022-10-11T10:15:55.686Z,25.90
2022-10-11T10:16:55.690Z,28.50
2022-10-11T10:17:55.698Z,26.10
2022-10-11T10:18:55.722Z,26.40
2022-10-11T10:19:55.649Z,36.40
2022-10-11T10:20:55.705Z,25.70
2022-10-11T10:21:55.665Z,27.70
2022-10-11T10:22:55.635Z,27.60
2022-10-11T10:23:55.633Z,25.50
2022-10-11T10:24:56.321Z,24.60
2022-10-11T10:25:55.601Z,25.50
2022-10-11T10:26:55.579Z,25.80
2022-10-11T10:27:55.586Z,26.60
2022-10-11T10:28:55.659Z,27.40
2022-10-11T10:29:55.570Z,22.00
2022-10-11T10:30:55.590Z,26.50
2022-10-11T10:32:13.313Z,31.20
2022-10-11T10:32:57.550Z,24.70
2022-10-11T10:33:55.554Z,22.10
2022-10-11T10:34:55.518Z,29.90
2022-10-11T10:35:55.479Z,23.20
2022-10-11T10:36:55.498Z,30.20
2022-10-11T10:37:55.526Z,32.60
2022-10-11T10:38:55.479Z,32.50
2022-10-11T10:39:55.434Z,30.90
2022-10-11T10:40:55.478Z,27.50
2022-10-11T10:41:55.443Z,24.40
2022-10-11T10:42:55.415Z,25.10
2022-10-11T10:43:55.415Z,29.10
2022-10-11T10:44:55.434Z,25.10
2022-10-11T10:45:55.450Z,31.40
2022-10-11T10:46:55.374Z,27.50
2022-10-11T10:47:55.366Z,28.20
2022-10-11T10:49:28.699Z,27.60
2022-10-11T10:49:57.377Z,23.70
2022-10-11T10:50:55.348Z,29.00
2022-10-11T10:51:55.347Z,25.30
2022-10-11T10:52:55.340Z,26.30
2022-10-11T10:53:55.291Z,29.20
2022-10-11T10:54:55.252Z,26.10
2022-10-11T10:55:55.308Z,25.60
2022-10-11T10:56:55.326Z,24.80
2022-10-11T10:57:55.255Z,20.20
2022-10-11T10:58:55.228Z,24.00
2022-10-11T10:59:55.225Z,25.20
2022-10-11T11:00:55.291Z,22.60
2022-10-11T11:01:55.334Z,24.10
2022-10-11T11:02:55.291Z,20.60
2022-10-11T11:03:55.175Z,27.10
2022-10-11T11:04:55.218Z,24.70
2022-10-11T11:05:55.137Z,24.80
2022-10-11T11:06:55.146Z,25.50
2022-10-11T11:07:55.158Z,29.40
2022-10-11T11:08:55.125Z,21.00
2022-10-11T11:09:55.108Z,25.20
2022-10-11T11:10:55.179Z,23.20
2022-10-11T11:11:55.091Z,25.70
2022-10-11T11:12:55.080Z,29.30
2022-10-11T11:13:55.045Z,23.40
2022-10-11T11:14:55.076Z,26.10
2022-10-11T11:15:55.004Z,22.30
2022-10-11T11:16:55.036Z,31.40
2022-10-11T11:17:55.041Z,23.10
2022-10-11T11:18:54.977Z,22.60
2022-10-11T11:19:55.028Z,24.20
2022-10-11T11:20:55.912Z,25.00
2022-10-11T11:21:54.956Z,28.80
2022-10-11T11:22:55.921Z,24.90
2022-10-11T11:23:54.940Z,19.80
2022-10-11T11:24:54.937Z,27.60
2022-10-11T11:25:54.933Z,24.80
2022-10-11T11:26:54.993Z,24.60
2022-10-11T11:27:54.873Z,31.70
2022-10-11T11:28:55.017Z,29.10
2022-10-11T11:29:55.780Z,26.20
2022-10-11T11:30:54.869Z,25.90
2022-10-11T11:31:54.869Z,26.00
2022-10-11T11:32:54.842Z,27.00
2022-10-11T11:33:54.835Z,26.30
2022-10-11T11:34:55.797Z,22.40
2022-10-11T11:35:54.823Z,17.40
2022-10-11T11:36:54.813Z,21.70
2022-10-11T11:38:01.260Z,21.60
2022-10-11T11:38:54.762Z,20.60
2022-10-11T11:39:54.771Z,20.80
2022-10-11T11:40:54.750Z,20.10
2022-10-11T11:41:54.767Z,20.90
2022-10-11T11:42:54.705Z,24.80
2022-10-11T11:43:54.722Z,20.70
2022-10-11T11:44:54.690Z,23.90
2022-10-11T11:45:54.687Z,23.10
2022-10-11T11:46:54.671Z,24.40
2022-10-11T11:47:54.655Z,21.40
2022-10-11T11:48:54.652Z,21.30
2022-10-11T11:49:54.638Z,26.20
2022-10-11T11:50:54.655Z,25.80
2022-10-11T11:51:54.613Z,20.20
2022-10-11T11:52:54.590Z,20.10
2022-10-11T11:53:54.732Z,19.20
2022-10-11T11:54:54.580Z,24.00
2022-10-11T11:55:54.539Z,25.00
2022-10-11T11:56:54.554Z,21.60
2022-10-11T11:57:54.547Z,22.20
2022-10-11T11:58:54.511Z,23.70
2022-10-11T11:59:54.530Z,29.00
2022-10-11T12:00:54.515Z,24.00
2022-10-11T12:01:54.548Z,24.70
2022-10-11T12:02:54.472Z,24.90
2022-10-11T12:03:54.486Z,21.00
2022-10-11T12:04:54.448Z,21.80
2022-10-11T12:05:54.427Z,24.40
2022-10-11T12:07:15.028Z,22.10
2022-10-11T12:07:56.464Z,24.00
2022-10-11T12:08:54.439Z,16.50
2022-10-11T12:09:54.470Z,17.70
2022-10-11T12:10:54.462Z,14.80
2022-10-11T12:11:54.907Z,24.40
2022-10-11T12:12:54.364Z,23.60
2022-10-11T12:13:54.396Z,18.70
2022-10-11T12:14:54.362Z,17.30
2022-10-11T12:15:54.400Z,19.00
2022-10-11T12:16:54.304Z,17.00
2022-10-11T12:17:54.904Z,15.40
2022-10-11T12:18:54.320Z,12.10
2022-10-11T12:19:54.299Z,16.10
2022-10-11T12:20:54.288Z,15.40
2022-10-11T12:21:54.245Z,21.80
2022-10-11T12:22:54.279Z,15.60
2022-10-11T12:23:54.237Z,13.30
2022-10-11T12:24:54.231Z,12.70
2022-10-11T12:25:54.211Z,15.90
2022-10-11T12:26:54.208Z,17.30
2022-10-11T12:27:54.184Z,16.80
2022-10-11T12:28:54.245Z,17.50
2022-10-11T12:29:54.175Z,18.10
2022-10-11T12:30:54.155Z,15.80
2022-10-11T12:31:54.151Z,15.00
2022-10-11T12:32:54.104Z,15.10
2022-10-11T12:33:54.132Z,17.70
2022-10-11T12:34:54.149Z,14.90
2022-10-11T12:35:54.119Z,18.80
2022-10-11T12:36:54.085Z,16.00
2022-10-11T12:37:54.100Z,13.30
2022-10-11T12:38:54.061Z,19.40
2022-10-11T12:39:54.043Z,14.10
2022-10-11T12:40:54.052Z,15.70
2022-10-11T12:41:54.900Z,17.70
2022-10-11T12:42:54.002Z,17.50
2022-10-11T12:43:54.028Z,18.40
2022-10-11T12:44:54.301Z,39.00
2022-10-11T12:45:53.998Z,25.70
2022-10-11T12:46:54.049Z,13.00
2022-10-11T12:47:53.981Z,15.80
2022-10-11T12:48:53.986Z,12.60
2022-10-11T12:49:53.955Z,12.60
2022-10-11T12:50:53.969Z,12.40
2022-10-11T12:51:53.894Z,15.20